Time;durP1;ratioP1;P1;durP2;ratioP2;P2;SDS_P1;SDS_P2;PMS_P1;PMS_P2;Temp;Humidity;BMP_temperature;BMP_pressure;BME280_temperature;BME280_humidity;BME280_pressure;Samples;Min_cycle;Max_cycle;Signal;HPM_P1;HPM_P2
2021/04/22 00:00:23;;;;;;;18.85;3.47;;;3.40;99.90;;;;;;5083292;28;19927;-68
2021/04/22 00:02:50;;;;;;;13.68;3.65;;;3.40;99.80;;;;;;5082412;28;20044;-67
2021/04/22 00:05:28;;;;;;;14.98;2.97;;;3.40;99.70;;;;;;5082142;28;20051;-68
2021/04/22 00:07:55;;;;;;;25.38;3.58;;;3.30;99.30;;;;;;5083291;28;20029;-66
2021/04/22 00:10:28;;;;;;;19.23;3.15;;;3.20;99.60;;;;;;5080871;28;20173;-68
2021/04/22 00:12:53;;;;;;;14.05;3.88;;;3.10;99.50;;;;;;5083675;28;20548;-68
2021/04/22 00:15:21;;;;;;;19.30;4.13;;;3.10;99.30;;;;;;5072876;28;20127;-66
2021/04/22 00:17:50;;;;;;;20.20;3.83;;;3.00;99.60;;;;;;5070224;28;20036;-66
2021/04/22 00:20:17;;;;;;;10.80;2.50;;;3.00;99.60;;;;;;5069181;28;20063;-66
2021/04/22 00:22:43;;;;;;;22.17;3.45;;;3.00;99.60;;;;;;5069668;28;20059;-67
2021/04/22 00:25:09;;;;;;;16.23;3.17;;;3.00;99.50;;;;;;5070174;28;20048;-67
2021/04/22 00:27:35;;;;;;;23.73;4.07;;;2.90;99.50;;;;;;5066687;28;20125;-67
2021/04/22 00:30:03;;;;;;;25.75;3.63;;;2.90;99.60;;;;;;5071062;28;20111;-68
2021/04/22 00:32:28;;;;;;;15.90;3.60;;;2.80;99.40;;;;;;5069844;28;20485;-66
2021/04/22 00:34:54;;;;;;;21.30;3.10;;;2.80;99.10;;;;;;5069612;28;20028;-67
2021/04/22 00:37:19;;;;;;;16.83;3.53;;;2.80;99.30;;;;;;5070156;28;20036;-68
2021/04/22 00:39:45;;;;;;;18.58;3.45;;;2.70;99.60;;;;;;5070473;28;20040;-67
2021/04/22 00:42:11;;;;;;;21.15;3.33;;;2.80;99.80;;;;;;5069874;28;20045;-68
2021/04/22 00:44:37;;;;;;;21.77;3.67;;;2.80;99.50;;;;;;5069758;28;20037;-68
2021/04/22 00:47:03;;;;;;;27.55;4.28;;;2.70;99.90;;;;;;5068902;28;20041;-68
2021/04/22 00:49:29;;;;;;;20.73;3.53;;;2.60;99.90;;;;;;5069174;28;20700;-66
2021/04/22 00:51:55;;;;;;;22.90;3.55;;;2.50;99.90;;;;;;5067717;28;20193;-68
2021/04/22 00:54:21;;;;;;;19.02;4.05;;;2.40;99.90;;;;;;5063219;28;20055;-67
2021/04/22 00:56:47;;;;;;;28.30;5.97;;;2.50;99.90;;;;;;5075188;28;20404;-66
2021/04/22 00:59:13;;;;;;;23.45;4.05;;;2.40;99.90;;;;;;5068816;28;20408;-67
2021/04/22 01:01:38;;;;;;;26.90;4.75;;;2.40;99.90;;;;;;5068024;28;20036;-68
2021/04/22 01:04:04;;;;;;;20.13;3.25;;;2.40;99.90;;;;;;5062376;28;20040;-68
2021/04/22 01:06:31;;;;;;;25.55;4.95;;;2.40;99.80;;;;;;5069120;28;20048;-67
2021/04/22 01:08:56;;;;;;;29.15;4.65;;;2.30;99.90;;;;;;5069200;28;20033;-68
2021/04/22 01:11:29;;;;;;;24.20;5.55;;;2.30;99.90;;;;;;5068530;28;20107;-66
2021/04/22 01:13:55;;;;;;;25.15;3.97;;;2.10;99.90;;;;;;5068330;28;20075;-67
2021/04/22 01:16:21;;;;;;;15.75;4.05;;;2.20;99.90;;;;;;5068288;28;20299;-67
2021/04/22 01:18:46;;;;;;;22.52;4.22;;;2.20;99.90;;;;;;5069012;28;20116;-68
2021/04/22 01:21:27;;;;;;;26.15;4.68;;;2.20;99.90;;;;;;5068119;28;20108;-66
2021/04/22 01:23:53;;;;;;;30.02;4.53;;;2.20;99.90;;;;;;5069181;28;20497;-66
2021/04/22 01:26:21;;;;;;;27.30;4.63;;;2.20;99.90;;;;;;5067337;28;20040;-67
2021/04/22 01:28:47;;;;;;;26.58;6.07;;;2.10;99.90;;;;;;5068709;28;20438;-66
2021/04/22 01:31:13;;;;;;;25.80;3.90;;;2.10;99.90;;;;;;5068710;28;20075;-67
2021/04/22 01:33:39;;;;;;;21.77;4.40;;;2.00;99.90;;;;;;5067246;28;20055;-68
2021/04/22 01:36:05;;;;;;;18.30;4.15;;;1.90;99.90;;;;;;5068234;28;20718;-68
2021/04/22 01:38:31;;;;;;;26.33;4.55;;;1.90;99.90;;;;;;5065926;28;20037;-69
2021/04/22 01:40:57;;;;;;;29.33;4.65;;;1.90;99.90;;;;;;5067825;28;20179;-68
2021/04/22 01:43:23;;;;;;;23.85;4.55;;;1.90;99.90;;;;;;5067806;28;20052;-68
2021/04/22 01:45:49;;;;;;;25.25;4.05;;;1.80;99.90;;;;;;5067895;28;20036;-66
2021/04/22 01:48:14;;;;;;;21.73;5.18;;;1.90;99.90;;;;;;5068513;28;20064;-67
2021/04/22 01:50:40;;;;;;;20.70;4.35;;;1.90;99.90;;;;;;5067602;28;20039;-68
2021/04/22 01:53:07;;;;;;;34.03;6.78;;;1.80;99.90;;;;;;5068402;28;20098;-68
2021/04/22 01:55:42;;;;;;;27.38;4.85;;;1.80;99.90;;;;;;5068396;28;20496;-68
2021/04/22 01:58:11;;;;;;;22.60;4.50;;;1.70;99.90;;;;;;5048003;28;20533;-65
2021/04/22 02:00:40;;;;;;;26.98;4.70;;;1.70;99.90;;;;;;5048265;28;20037;-65
2021/04/22 02:03:06;;;;;;;34.50;5.82;;;1.70;99.90;;;;;;5050102;28;20056;-67
2021/04/22 02:05:33;;;;;;;36.22;4.80;;;1.60;99.90;;;;;;5067393;28;20323;-68
2021/04/22 02:07:58;;;;;;;20.55;5.10;;;1.60;99.90;;;;;;5073335;28;20119;-67
2021/04/22 02:10:24;;;;;;;29.67;4.88;;;1.60;99.90;;;;;;5087788;28;20234;-68
2021/04/22 02:12:51;;;;;;;27.98;5.03;;;1.70;99.90;;;;;;5086832;28;20028;-67
2021/04/22 02:15:23;;;;;;;20.42;4.57;;;1.60;99.90;;;;;;5087774;28;20606;-66
2021/04/22 02:17:48;;;;;;;32.70;5.53;;;1.70;99.90;;;;;;5089220;28;20075;-67
2021/04/22 02:20:16;;;;;;;38.35;6.28;;;1.70;99.90;;;;;;5088658;28;20456;-66
2021/04/22 02:22:42;;;;;;;27.23;5.40;;;1.70;99.90;;;;;;5088233;28;20048;-68
2021/04/22 02:25:10;;;;;;;25.92;5.10;;;1.70;99.90;;;;;;5087242;28;20043;-67
2021/04/22 02:27:37;;;;;;;26.30;4.55;;;1.70;99.90;;;;;;5066814;28;20047;-67
2021/04/22 02:30:07;;;;;;;22.98;5.53;;;1.90;99.90;;;;;;5068342;28;20037;-68
2021/04/22 02:32:32;;;;;;;27.35;4.95;;;1.90;99.90;;;;;;5066807;28;20047;-67
2021/04/22 02:34:58;;;;;;;25.42;5.22;;;1.80;99.90;;;;;;5066777;28;20040;-67
2021/04/22 02:37:23;;;;;;;19.20;4.75;;;1.80;99.90;;;;;;5064785;28;20124;-68
2021/04/22 02:39:49;;;;;;;27.42;6.13;;;1.80;99.90;;;;;;5059347;28;20124;-66
2021/04/22 02:42:14;;;;;;;27.33;5.70;;;1.80;99.90;;;;;;5065594;28;20442;-67
2021/04/22 02:44:40;;;;;;;32.70;5.43;;;1.80;99.90;;;;;;5065798;28;20400;-66
2021/04/22 02:47:05;;;;;;;34.00;5.40;;;1.90;99.90;;;;;;5067294;28;20041;-68
2021/04/22 02:49:31;;;;;;;35.55;5.78;;;1.90;99.90;;;;;;5067216;28;20041;-68
2021/04/22 02:51:56;;;;;;;29.02;6.03;;;2.00;99.90;;;;;;5066262;28;20043;-67
2021/04/22 02:54:22;;;;;;;24.85;5.63;;;2.00;99.90;;;;;;5067672;28;20090;-66
2021/04/22 02:56:48;;;;;;;30.30;6.45;;;2.10;99.90;;;;;;5068166;28;20040;-66
2021/04/22 02:59:13;;;;;;;33.35;6.10;;;2.10;99.90;;;;;;5067142;28;20504;-67
2021/04/22 03:01:39;;;;;;;29.52;5.13;;;2.10;99.90;;;;;;5066251;28;20037;-66
2021/04/22 03:04:05;;;;;;;31.83;6.88;;;2.20;99.90;;;;;;5066308;28;20066;-67
2021/04/22 03:06:30;;;;;;;22.42;4.88;;;2.20;99.90;;;;;;5066434;28;20504;-68
2021/04/22 03:08:56;;;;;;;48.90;6.60;;;2.30;99.90;;;;;;5067063;28;20143;-68
2021/04/22 03:11:21;;;;;;;23.35;5.55;;;2.30;99.90;;;;;;5066906;28;20067;-67
2021/04/22 03:13:47;;;;;;;28.58;5.82;;;2.30;99.90;;;;;;5065069;28;20159;-66
2021/04/22 03:16:12;;;;;;;26.58;6.00;;;2.30;99.90;;;;;;5066725;28;20037;-68
2021/04/22 03:18:38;;;;;;;25.63;5.13;;;2.30;99.90;;;;;;5067099;28;20098;-65
2021/04/22 03:21:04;;;;;;;22.10;5.60;;;2.30;99.90;;;;;;5064879;28;20048;-68
2021/04/22 03:23:29;;;;;;;30.40;6.78;;;2.30;99.90;;;;;;5067013;28;20668;-67
2021/04/22 03:25:55;;;;;;;23.77;4.70;;;2.30;99.90;;;;;;5066511;28;20036;-67
2021/04/22 03:28:20;;;;;;;24.83;5.68;;;2.30;99.90;;;;;;5066394;28;20041;-68
2021/04/22 03:30:46;;;;;;;27.70;5.50;;;2.30;99.90;;;;;;5066772;28;20412;-66
2021/04/22 03:33:12;;;;;;;27.05;6.15;;;2.30;99.90;;;;;;5067066;28;20040;-66
2021/04/22 03:35:37;;;;;;;24.80;6.45;;;2.20;99.90;;;;;;5066645;28;20040;-68
2021/04/22 03:38:04;;;;;;;23.05;5.85;;;2.20;99.90;;;;;;5064084;28;20476;-68
2021/04/22 03:40:29;;;;;;;36.10;5.20;;;2.20;99.90;;;;;;5062780;28;20120;-68
2021/04/22 03:42:56;;;;;;;32.08;5.40;;;2.10;99.90;;;;;;5066925;28;20638;-66
2021/04/22 03:45:23;;;;;;;26.02;5.60;;;2.10;99.90;;;;;;5066130;28;20033;-65
2021/04/22 03:47:49;;;;;;;21.95;6.13;;;2.10;99.90;;;;;;5063400;28;20112;-64
2021/04/22 03:50:17;;;;;;;26.42;5.15;;;2.10;99.90;;;;;;5068025;28;20510;-66
2021/04/22 03:52:43;;;;;;;28.67;6.03;;;2.10;99.90;;;;;;5069903;28;20128;-60
2021/04/22 03:55:10;;;;;;;26.27;5.47;;;2.00;99.90;;;;;;5070412;28;20178;-58
2021/04/22 03:57:36;;;;;;;20.73;5.25;;;2.00;99.90;;;;;;5086635;28;20515;-60
2021/04/22 04:00:05;;;;;;;27.50;5.38;;;2.10;99.90;;;;;;5090771;28;20047;-61
2021/04/22 04:02:30;;;;;;;38.10;6.13;;;2.20;99.90;;;;;;5088998;28;20078;-62
2021/04/22 04:04:56;;;;;;;28.08;6.25;;;2.20;99.70;;;;;;5066125;28;20060;-61
2021/04/22 04:07:21;;;;;;;25.63;4.68;;;2.10;99.50;;;;;;5073450;28;20511;-62
2021/04/22 04:09:47;;;;;;;28.63;5.30;;;2.10;99.90;;;;;;5091779;28;20104;-63
2021/04/22 04:12:12;;;;;;;23.13;4.88;;;2.00;99.90;;;;;;5090466;28;20182;-63
2021/04/22 04:14:38;;;;;;;27.10;5.63;;;2.00;99.80;;;;;;5090426;28;20089;-62
2021/04/22 04:17:04;;;;;;;26.50;4.90;;;2.00;99.80;;;;;;5090234;28;20036;-62
2021/04/22 04:19:30;;;;;;;28.10;4.70;;;2.10;99.90;;;;;;5090167;28;20040;-63
2021/04/22 04:21:56;;;;;;;33.47;5.22;;;2.10;99.90;;;;;;5089790;28;20511;-62
2021/04/22 04:24:21;;;;;;;25.25;4.57;;;2.10;99.80;;;;;;5089989;28;20400;-62
2021/04/22 04:26:47;;;;;;;23.27;5.57;;;2.10;99.90;;;;;;5090038;28;20399;-62
2021/04/22 04:29:13;;;;;;;18.83;4.90;;;2.20;99.70;;;;;;5073799;28;20036;-63
2021/04/22 04:31:38;;;;;;;32.85;5.10;;;2.20;99.20;;;;;;5068906;28;20047;-63
2021/04/22 04:34:04;;;;;;;21.20;4.43;;;2.10;98.80;;;;;;5069412;28;20051;-63
2021/04/22 04:36:30;;;;;;;27.40;5.38;;;2.00;99.50;;;;;;5069110;28;20059;-63
2021/04/22 04:38:56;;;;;;;25.25;4.80;;;2.00;99.60;;;;;;5069078;28;20040;-62
2021/04/22 04:41:22;;;;;;;29.48;4.40;;;2.10;99.60;;;;;;5069185;28;20040;-62
2021/04/22 04:43:47;;;;;;;26.65;4.70;;;2.10;99.00;;;;;;5069710;28;20048;-62
2021/04/22 04:46:17;;;;;;;26.08;4.20;;;2.20;99.10;;;;;;5068668;28;20044;-63
2021/04/22 04:48:42;;;;;;;24.02;4.47;;;2.10;99.00;;;;;;5068470;28;20036;-63
2021/04/22 04:51:08;;;;;;;26.77;4.70;;;2.20;98.90;;;;;;5068790;28;20451;-63
2021/04/22 04:53:34;;;;;;;19.95;4.15;;;2.10;98.30;;;;;;5069151;28;20496;-61
2021/04/22 04:55:59;;;;;;;27.55;4.53;;;2.10;98.50;;;;;;5072557;28;20058;-63
2021/04/22 04:58:25;;;;;;;23.67;4.13;;;2.10;98.90;;;;;;5088987;28;20123;-63
2021/04/22 05:00:50;;;;;;;22.10;5.10;;;2.10;99.40;;;;;;5088055;28;20085;-62
2021/04/22 05:03:16;;;;;;;20.10;4.53;;;2.10;98.80;;;;;;5081154;28;20037;-60
2021/04/22 05:05:41;;;;;;;20.77;4.28;;;2.10;98.90;;;;;;5063915;28;20060;-62
2021/04/22 05:08:07;;;;;;;24.08;5.10;;;2.20;98.90;;;;;;5065996;28;20064;-62
2021/04/22 05:10:32;;;;;;;29.73;5.95;;;2.20;98.80;;;;;;5068767;28;20511;-62
2021/04/22 05:12:58;;;;;;;22.48;4.90;;;2.20;98.40;;;;;;5048333;28;20040;-62
2021/04/22 05:15:24;;;;;;;16.70;4.30;;;2.20;98.70;;;;;;5048451;28;20037;-62
2021/04/22 05:17:49;;;;;;;25.80;5.28;;;2.30;98.60;;;;;;5057266;28;20044;-62
2021/04/22 05:20:15;;;;;;;15.68;4.20;;;2.30;98.20;;;;;;5068529;28;20044;-63
2021/04/22 05:22:41;;;;;;;18.42;4.63;;;2.20;98.40;;;;;;5068247;28;20044;-62
2021/04/22 05:25:07;;;;;;;21.80;4.30;;;2.30;98.30;;;;;;5069532;28;20032;-62
2021/04/22 05:27:33;;;;;;;22.58;4.63;;;2.30;98.30;;;;;;5077010;28;20489;-62
2021/04/22 05:29:59;;;;;;;17.08;4.80;;;2.30;98.20;;;;;;5059931;28;20058;-60
2021/04/22 05:32:25;;;;;;;20.75;5.18;;;2.30;99.00;;;;;;5079304;28;20043;-61
2021/04/22 05:34:50;;;;;;;25.50;4.82;;;2.40;99.30;;;;;;5064374;28;20048;-62
2021/04/22 05:37:17;;;;;;;26.63;4.43;;;2.50;98.30;;;;;;5079088;28;20107;-62
2021/04/22 05:39:43;;;;;;;18.48;4.82;;;2.40;98.30;;;;;;5079591;28;20518;-62
2021/04/22 05:42:09;;;;;;;25.60;4.03;;;2.50;98.20;;;;;;5087716;28;20116;-61
2021/04/22 05:44:34;;;;;;;16.52;4.20;;;2.40;97.90;;;;;;5088526;28;20466;-63
2021/04/22 05:47:00;;;;;;;22.35;5.35;;;2.50;98.90;;;;;;5087728;28;20035;-62
2021/04/22 05:49:27;;;;;;;19.83;6.03;;;2.60;98.20;;;;;;5089105;28;20072;-63
2021/04/22 05:51:52;;;;;;;19.17;4.95;;;2.60;98.00;;;;;;5088289;28;20036;-62
2021/04/22 05:54:18;;;;;;;26.40;5.15;;;2.60;98.40;;;;;;5069919;28;20569;-64
2021/04/22 05:56:45;;;;;;;32.60;4.70;;;2.60;98.50;;;;;;5071757;28;20041;-64
2021/04/22 05:59:11;;;;;;;25.50;5.60;;;2.70;98.20;;;;;;5059293;28;20037;-66
2021/04/22 06:01:36;;;;;;;22.27;4.97;;;2.70;97.60;;;;;;5066668;28;20141;-66
2021/04/22 06:04:02;;;;;;;30.92;5.03;;;2.60;97.00;;;;;;5061701;28;20036;-63
2021/04/22 06:06:28;;;;;;;;;;;2.70;97.60;;;;;;5069317;28;20457;-67
2021/04/22 06:08:53;;;;;;;24.50;5.45;;;2.70;97.50;;;;;;5068518;28;19916;-66
2021/04/22 06:11:19;;;;;;;20.95;4.47;;;2.80;97.30;;;;;;5067053;28;20448;-64
2021/04/22 06:13:44;;;;;;;;;;;2.80;97.80;;;;;;5067457;28;20045;-66
2021/04/22 06:16:10;;;;;;;17.80;3.97;;;2.80;97.70;;;;;;5020472;22;20360;-67
2021/04/22 06:18:36;;;;;;;24.75;4.63;;;2.70;97.70;;;;;;5008526;28;20045;-66
2021/04/22 06:21:02;;;;;;;26.88;4.03;;;2.70;97.80;;;;;;5007604;28;20038;-65
2021/04/22 06:23:28;;;;;;;25.25;5.05;;;2.80;97.90;;;;;;4993039;28;20140;-65
2021/04/22 06:25:54;;;;;;;25.92;5.85;;;2.90;97.80;;;;;;4988122;28;20137;-66
2021/04/22 06:28:20;;;;;;;23.92;4.75;;;2.90;98.00;;;;;;4986548;28;20056;-65
2021/04/22 06:30:46;;;;;;;21.83;5.13;;;3.00;97.60;;;;;;4986028;28;20049;-64
2021/04/22 06:33:12;;;;;;;17.75;4.30;;;3.00;97.90;;;;;;4988347;28;20043;-65
2021/04/22 06:35:37;;;;;;;31.75;4.72;;;3.10;97.80;;;;;;4987392;28;20038;-64
2021/04/22 06:38:04;;;;;;;26.55;4.70;;;3.20;97.50;;;;;;4989187;28;20097;-65
2021/04/22 06:40:30;;;;;;;23.90;4.65;;;3.10;96.90;;;;;;4992544;23;20046;-79
2021/04/22 06:42:55;;;;;;;22.92;4.25;;;3.20;97.20;;;;;;5019256;28;20037;-71
2021/04/22 06:45:22;;;;;;;25.48;4.50;;;3.30;96.60;;;;;;5007537;28;20517;-82
2021/04/22 06:47:47;;;;;;;29.40;4.97;;;3.20;96.90;;;;;;5006727;28;20394;-76
2021/04/22 06:50:15;;;;;;;20.77;3.97;;;3.30;96.80;;;;;;4998096;28;20038;-71
2021/04/22 06:52:41;;;;;;;19.98;3.38;;;3.30;97.70;;;;;;4993279;28;20053;-74
2021/04/22 06:55:11;;;;;;;22.25;4.10;;;3.40;95.80;;;;;;4999773;28;20088;-70
2021/04/22 06:57:38;;;;;;;20.15;3.95;;;3.40;95.60;;;;;;4996831;28;20040;-72
2021/04/22 07:00:11;;;;;;;15.43;3.70;;;3.50;95.40;;;;;;5003885;28;20049;-75
2021/04/22 07:02:47;;;;;;;16.15;3.72;;;3.70;94.80;;;;;;5001753;28;20073;-74
2021/04/22 07:05:15;;;;;;;14.32;3.55;;;3.80;95.00;;;;;;4997078;28;20038;-73
2021/04/22 07:07:41;;;;;;;25.50;4.25;;;3.80;94.90;;;;;;4998988;28;20088;-76
2021/04/22 07:10:09;;;;;;;15.13;3.72;;;3.80;94.60;;;;;;4993686;28;20038;-72
2021/04/22 07:12:35;;;;;;;22.40;3.75;;;3.90;94.70;;;;;;4999026;28;20076;-73
2021/04/22 07:15:01;;;;;;;19.00;3.83;;;4.00;94.60;;;;;;4994237;28;20498;-75
2021/04/22 07:17:27;;;;;;;20.42;3.42;;;4.20;94.40;;;;;;5016419;28;20049;-76
2021/04/22 07:19:56;;;;;;;15.57;3.55;;;4.30;94.00;;;;;;5015365;28;20041;-75
2021/04/22 07:22:23;;;;;;;20.42;3.78;;;4.60;93.40;;;;;;5007835;28;20045;-75
2021/04/22 07:24:49;;;;;;;19.00;4.55;;;4.90;92.90;;;;;;5012134;28;20517;-74
2021/04/22 07:27:16;;;;;;;26.42;3.20;;;4.70;92.60;;;;;;5014187;28;20128;-73
2021/04/22 07:29:45;;;;;;;24.67;3.65;;;4.70;93.90;;;;;;5014622;28;20042;-73
2021/04/22 07:32:15;;;;;;;25.77;3.63;;;4.50;92.80;;;;;;5012433;28;20041;-75
2021/04/22 07:34:45;;;;;;;16.52;3.17;;;4.70;93.60;;;;;;5028627;28;20056;-75
2021/04/22 07:37:11;;;;;;;18.23;3.30;;;4.80;93.60;;;;;;5032599;28;20044;-75
2021/04/22 07:39:37;;;;;;;;;;;4.90;93.60;;;;;;5032562;28;20045;-75
2021/04/22 07:42:04;;;;;;;20.35;3.65;;;5.20;92.40;;;;;;5032456;28;19917;-76
2021/04/22 07:44:30;;;;;;;16.55;3.78;;;5.60;92.40;;;;;;5032499;28;20103;-74
2021/04/22 07:46:56;;;;;;;;;;;5.90;91.10;;;;;;5032056;28;20033;-74
2021/04/22 07:49:22;;;;;;;26.33;5.35;;;5.50;90.00;;;;;;5032765;28;19917;-74
2021/04/22 07:51:48;;;;;;;;;;;5.60;91.20;;;;;;5032299;28;20437;-76
2021/04/22 07:54:13;;;;;;;20.60;4.15;;;5.30;91.30;;;;;;5029036;28;19924;-76
2021/04/22 07:56:40;;;;;;;;;;;6.00;91.60;;;;;;5020667;28;20137;-73
2021/04/22 07:59:06;;;;;;;10.73;3.60;;;6.80;88.00;;;;;;5012534;28;19921;-74
2021/04/22 08:01:31;;;;;;;;;;;7.20;86.70;;;;;;5011370;28;20695;-76
2021/04/22 08:03:57;;;;;;;16.17;4.25;;;7.40;87.50;;;;;;5011200;28;19960;-76
2021/04/22 08:06:23;;;;;;;;;;;8.10;84.40;;;;;;5008693;28;20117;-76
2021/04/22 08:08:48;;;;;;;13.80;3.63;;;8.50;77.10;;;;;;5011523;28;20595;-74
2021/04/22 08:11:14;;;;;;;;;;;8.50;78.80;;;;;;5012030;28;20038;-76
2021/04/22 08:13:40;;;;;;;19.73;3.40;;;9.30;77.00;;;;;;5011657;28;19921;-74
2021/04/22 08:16:06;;;;;;;;;;;8.60;75.60;;;;;;5011935;28;20037;-73
2021/04/22 08:18:32;;;;;;;11.98;3.60;;;7.80;79.10;;;;;;5011478;28;19965;-76
2021/04/22 08:20:59;;;;;;;18.98;3.80;;;8.10;80.20;;;;;;5010059;28;20057;-74
2021/04/22 08:23:32;;;;;;;14.77;3.53;;;8.10;79.40;;;;;;5010717;28;20038;-76
2021/04/22 08:26:08;;;;;;;11.52;3.78;;;8.60;78.20;;;;;;5011878;28;20038;-76
2021/04/22 08:28:34;;;;;;;11.88;2.90;;;8.80;74.50;;;;;;5006524;28;20038;-75
2021/04/22 08:31:28;;;;;;;20.67;3.58;;;8.10;79.20;;;;;;5009299;28;20054;-73
2021/04/22 08:33:58;;;;;;;13.65;3.10;;;8.20;78.80;;;;;;5010411;28;20060;-74
2021/04/22 08:36:25;;;;;;;15.95;3.00;;;8.30;77.00;;;;;;5010412;28;20049;-74
2021/04/22 08:38:52;;;;;;;12.80;3.88;;;8.60;75.20;;;;;;5010754;28;20046;-76
2021/04/22 08:41:18;;;;;;;15.00;3.45;;;8.50;76.50;;;;;;5010215;28;20558;-75
2021/04/22 08:43:44;;;;;;;;;;;8.50;76.10;;;;;;5009458;28;20075;-72
2021/04/22 08:46:10;;;;;;;13.00;2.80;;;8.00;76.10;;;;;;5011066;28;19997;-70
2021/04/22 08:48:38;;;;;;;15.45;3.75;;;7.70;79.50;;;;;;5011628;28;20038;-70
2021/04/22 08:51:05;;;;;;;18.58;3.75;;;7.00;82.50;;;;;;5011168;28;20060;-72
2021/04/22 08:53:34;;;;;;;19.30;4.25;;;7.10;85.00;;;;;;5011681;28;20045;-73
2021/04/22 08:56:02;;;;;;;16.00;3.88;;;7.10;84.10;;;;;;5001828;28;20548;-72
2021/04/22 08:58:29;;;;;;;15.20;3.28;;;7.30;83.50;;;;;;4992418;28;20038;-70
2021/04/22 09:01:02;;;;;;;17.83;3.33;;;7.00;79.90;;;;;;5000676;28;20037;-72
2021/04/22 09:03:29;;;;;;;23.80;3.90;;;6.70;82.40;;;;;;5010595;28;20046;-71
2021/04/22 09:05:59;;;;;;;12.65;2.95;;;6.60;84.90;;;;;;5006546;28;20719;-71
2021/04/22 09:08:41;;;;;;;24.80;4.32;;;6.60;83.70;;;;;;5002589;28;20569;-70
2021/04/22 09:11:08;;;;;;;16.70;3.42;;;6.70;86.90;;;;;;5004301;28;20038;-71
2021/04/22 09:13:35;;;;;;;20.13;3.95;;;6.50;82.90;;;;;;5005568;28;20069;-72
2021/04/22 09:16:21;;;;;;;14.77;3.65;;;6.40;86.90;;;;;;4990713;28;20066;-71
2021/04/22 09:18:52;;;;;;;14.50;3.40;;;6.60;85.80;;;;;;4999330;28;20120;-73
2021/04/22 09:21:24;;;;;;;16.45;3.78;;;6.60;85.20;;;;;;5004602;28;20130;-71
2021/04/22 09:24:10;;;;;;;17.63;3.28;;;6.50;84.90;;;;;;5005547;28;20049;-71
2021/04/22 09:26:50;;;;;;;18.63;4.60;;;6.70;84.90;;;;;;5009315;28;20116;-71
2021/04/22 09:29:35;;;;;;;17.10;4.57;;;6.60;82.90;;;;;;5011705;28;20572;-69
2021/04/22 09:32:08;;;;;;;17.52;5.18;;;6.90;82.50;;;;;;5008400;28;20091;-71
2021/04/22 09:34:35;;;;;;;18.38;4.72;;;7.00;84.80;;;;;;5009489;28;20084;-71
2021/04/22 09:37:03;;;;;;;12.65;3.92;;;7.10;81.40;;;;;;5010312;28;20121;-68
2021/04/22 09:39:31;;;;;;;14.05;3.97;;;7.00;83.50;;;;;;5002575;28;20052;-69
2021/04/22 09:42:04;;;;;;;19.42;4.20;;;7.10;83.30;;;;;;5029415;28;20104;-70
2021/04/22 09:44:30;;;;;;;21.20;3.83;;;7.10;84.10;;;;;;5014354;28;20046;-69
2021/04/22 09:47:08;;;;;;;15.95;4.50;;;7.10;82.30;;;;;;5010645;28;20561;-70
2021/04/22 09:49:44;;;;;;;14.65;4.13;;;7.10;82.60;;;;;;5010680;28;20049;-71
2021/04/22 09:52:11;;;;;;;13.93;4.97;;;7.00;85.60;;;;;;5009183;28;20052;-70
2021/04/22 09:54:46;;;;;;;15.68;4.78;;;7.30;81.40;;;;;;5011973;28;20058;-70
2021/04/22 09:57:31;;;;;;;19.17;4.18;;;7.50;83.40;;;;;;5010373;28;20049;-69
2021/04/22 09:59:59;;;;;;;19.38;4.55;;;7.40;82.00;;;;;;5010282;28;20718;-69
2021/04/22 10:02:25;;;;;;;17.42;4.38;;;7.50;82.60;;;;;;5010116;28;20080;-70
2021/04/22 10:04:54;;;;;;;15.82;4.18;;;7.60;84.00;;;;;;5010789;28;20053;-69
2021/04/22 10:07:30;;;;;;;17.63;4.07;;;7.80;82.80;;;;;;5006410;28;20065;-69
2021/04/22 10:10:01;;;;;;;15.45;4.88;;;7.80;80.90;;;;;;5008629;28;20379;-69
2021/04/22 10:12:32;;;;;;;22.30;5.50;;;8.10;80.90;;;;;;5010178;28;20052;-71
2021/04/22 10:15:10;;;;;;;19.65;4.60;;;7.90;80.00;;;;;;5008556;28;20503;-68
2021/04/22 10:17:36;;;;;;;15.63;3.92;;;7.60;78.40;;;;;;5028911;28;20046;-69
2021/04/22 10:20:21;;;;;;;17.13;3.85;;;7.60;82.40;;;;;;5029338;28;20045;-71
2021/04/22 10:22:49;;;;;;;13.65;4.28;;;7.50;81.40;;;;;;5028955;28;20048;-70
2021/04/22 10:25:23;;;;;;;23.55;4.88;;;7.50;82.50;;;;;;5030200;28;20067;-69
2021/04/22 10:27:50;;;;;;;17.02;4.50;;;7.70;81.50;;;;;;5030484;28;20040;-70
2021/04/22 10:30:16;;;;;;;;;;;7.40;79.80;;;;;;5030168;28;20049;-68
2021/04/22 10:32:43;;;;;;;15.48;4.03;;;7.10;82.50;;;;;;5025815;28;19982;-71
2021/04/22 10:35:11;;;;;;;19.20;4.07;;;7.20;85.50;;;;;;5029926;28;20034;-69
2021/04/22 10:37:40;;;;;;;17.88;4.55;;;7.50;82.60;;;;;;5028842;28;20129;-69
2021/04/22 10:40:06;;;;;;;21.08;5.20;;;7.50;84.30;;;;;;5028188;28;20482;-69
2021/04/22 10:42:33;;;;;;;18.58;4.43;;;7.70;83.70;;;;;;5028284;28;20099;-68
2021/04/22 10:45:04;;;;;;;15.98;4.60;;;7.80;81.30;;;;;;5028313;28;20041;-69
2021/04/22 10:47:30;;;;;;;13.07;5.30;;;7.90;82.80;;;;;;5026946;28;20041;-69
2021/04/22 10:49:56;;;;;;;19.58;5.43;;;7.90;79.70;;;;;;5022371;28;20048;-70
2021/04/22 10:52:22;;;;;;;;;;;7.90;82.40;;;;;;5018183;28;20046;-71
2021/04/22 10:54:52;;;;;;;17.73;4.93;;;7.80;82.60;;;;;;5026415;28;20000;-69
2021/04/22 10:57:20;;;;;;;21.38;5.60;;;7.80;82.50;;;;;;5013477;28;20048;-69
2021/04/22 10:59:48;;;;;;;16.88;4.82;;;7.80;82.30;;;;;;5018752;28;20099;-71
2021/04/22 11:02:20;;;;;;;18.08;4.75;;;7.80;80.40;;;;;;5026423;28;20061;-68
2021/04/22 11:04:47;;;;;;;15.70;5.68;;;7.50;79.40;;;;;;5028538;28;20103;-71
2021/04/22 11:07:14;;;;;;;25.95;5.15;;;7.60;83.40;;;;;;5028972;28;20251;-71
2021/04/22 11:09:40;;;;;;;21.10;5.60;;;7.70;86.10;;;;;;5028876;28;20042;-70
2021/04/22 11:12:06;;;;;;;16.60;4.97;;;7.70;81.20;;;;;;5007895;28;20042;-69
2021/04/22 11:14:41;;;;;;;18.40;6.35;;;7.70;78.90;;;;;;5008581;28;20077;-70
2021/04/22 11:17:07;;;;;;;18.65;5.95;;;7.70;79.70;;;;;;5007453;28;20041;-71
2021/04/22 11:19:46;;;;;;;17.05;4.80;;;7.90;82.60;;;;;;5008812;28;20076;-71
2021/04/22 11:22:29;;;;;;;21.20;4.43;;;8.00;81.30;;;;;;5012438;28;20367;-70
2021/04/22 11:25:00;;;;;;;27.27;5.88;;;8.10;83.40;;;;;;5028953;28;20049;-71
2021/04/22 11:27:32;;;;;;;18.15;5.15;;;7.60;82.40;;;;;;5025995;28;20049;-73
2021/04/22 11:30:05;;;;;;;12.85;4.30;;;7.60;84.60;;;;;;5025686;28;20043;-72
2021/04/22 11:32:36;;;;;;;13.57;4.90;;;7.60;77.10;;;;;;5026140;28;20553;-69
2021/04/22 11:35:16;;;;;;;10.88;4.80;;;7.70;79.90;;;;;;5025690;28;20406;-71
2021/04/22 11:37:55;;;;;;;13.77;5.15;;;7.60;82.30;;;;;;5028872;28;20050;-71
2021/04/22 11:40:25;;;;;;;22.45;6.75;;;7.50;83.10;;;;;;5027249;28;20045;-72
2021/04/22 11:42:54;;;;;;;21.75;5.15;;;7.40;83.10;;;;;;5030462;28;20048;-71
2021/04/22 11:45:26;;;;;;;15.07;5.47;;;7.50;83.80;;;;;;5023904;28;20033;-71
2021/04/22 11:47:52;;;;;;;17.65;4.95;;;7.70;85.70;;;;;;5028492;28;20065;-72
2021/04/22 11:50:20;;;;;;;;;;;7.70;82.30;;;;;;5032270;28;20168;-71
2021/04/22 11:52:53;;;;;;;13.68;4.63;;;7.70;81.90;;;;;;5027907;28;19968;-72
2021/04/22 11:55:36;;;;;;;14.82;4.57;;;7.90;85.20;;;;;;5027271;28;20041;-70
2021/04/22 11:58:11;;;;;;;14.85;4.93;;;8.20;85.80;;;;;;5009179;28;20037;-71
2021/04/22 12:00:59;;;;;;;28.30;6.30;;;8.40;81.10;;;;;;5025660;28;20449;-71
2021/04/22 12:03:27;;;;;;;16.25;4.68;;;8.20;77.70;;;;;;5027608;28;20413;-71
2021/04/22 12:05:54;;;;;;;18.17;5.10;;;8.40;82.60;;;;;;5024639;28;20081;-71
2021/04/22 12:08:30;;;;;;;12.05;4.80;;;8.40;81.70;;;;;;5026327;28;20538;-72
2021/04/22 12:10:57;;;;;;;13.07;4.13;;;8.10;78.40;;;;;;5026856;28;20045;-72
2021/04/22 12:13:23;;;;;;;16.52;4.10;;;8.20;82.30;;;;;;5030999;28;20053;-70
2021/04/22 12:15:57;;;;;;;16.63;4.20;;;8.60;81.00;;;;;;5030236;28;20044;-70
2021/04/22 12:18:31;;;;;;;20.40;4.95;;;8.60;75.10;;;;;;5027292;28;20457;-70
2021/04/22 12:21:20;;;;;;;16.48;4.97;;;8.60;78.80;;;;;;5028336;28;20116;-72
2021/04/22 12:23:48;;;;;;;17.40;4.32;;;8.40;80.20;;;;;;5027213;28;20498;-71
2021/04/22 12:26:25;;;;;;;11.00;3.60;;;8.30;79.60;;;;;;5025078;28;20037;-71
2021/04/22 12:28:53;;;;;;;13.75;4.63;;;8.50;78.60;;;;;;5030406;28;20041;-72
2021/04/22 12:31:30;;;;;;;18.67;5.22;;;8.70;77.80;;;;;;5028805;28;20040;-70
2021/04/22 12:34:08;;;;;;;13.40;4.63;;;8.60;79.10;;;;;;5028544;28;20424;-69
2021/04/22 12:36:35;;;;;;;13.63;4.90;;;8.40;79.60;;;;;;5012932;28;20038;-72
2021/04/22 12:39:03;;;;;;;17.00;4.85;;;8.30;79.20;;;;;;5025969;28;20046;-71
2021/04/22 12:41:30;;;;;;;19.85;6.18;;;8.30;81.30;;;;;;5018283;28;20034;-71
2021/04/22 12:43:56;;;;;;;;;;;8.20;81.40;;;;;;5022022;28;20056;-70
2021/04/22 12:46:23;;;;;;;17.23;5.15;;;8.10;81.70;;;;;;5031259;28;19952;-72
2021/04/22 12:48:55;;;;;;;11.93;4.65;;;8.30;81.90;;;;;;5030915;28;20398;-72
2021/04/22 12:51:31;;;;;;;23.75;5.97;;;8.30;79.20;;;;;;5030246;28;20125;-72
2021/04/22 12:53:57;;;;;;;17.52;6.10;;;8.20;79.80;;;;;;5031421;28;20100;-72